sensor_id;sensor_type;location;lat;lon;timestamp;P1;durP1;ratioP1;P2;durP2;ratioP2
20525;SDS011;10421;49.142;9.232;2023-08-21T00:01:50;10.13;;;6.13;;
20525;SDS011;10421;49.142;9.232;2023-08-21T00:04:17;10.20;;;6.93;;
20525;SDS011;10421;49.142;9.232;2023-08-21T00:06:44;9.80;;;6.33;;
20525;SDS011;10421;49.142;9.232;2023-08-21T00:09:10;12.30;;;6.80;;
20525;SDS011;10421;49.142;9.232;2023-08-21T00:11:37;10.43;;;6.27;;
20525;SDS011;10421;49.142;9.232;2023-08-21T00:14:04;7.37;;;5.63;;
20525;SDS011;10421;49.142;9.232;2023-08-21T00:16:31;14.90;;;7.40;;
20525;SDS011;10421;49.142;9.232;2023-08-21T00:18:59;13.10;;;7.40;;
20525;SDS011;10421;49.142;9.232;2023-08-21T00:21:26;7.20;;;5.80;;
20525;SDS011;10421;49.142;9.232;2023-08-21T00:23:53;9.40;;;6.40;;
20525;SDS011;10421;49.142;9.232;2023-08-21T00:26:19;11.77;;;6.50;;
20525;SDS011;10421;49.142;9.232;2023-08-21T00:28:46;10.77;;;6.33;;
20525;SDS011;10421;49.142;9.232;2023-08-21T00:31:13;9.43;;;6.00;;
20525;SDS011;10421;49.142;9.232;2023-08-21T00:33:39;12.20;;;7.03;;
20525;SDS011;10421;49.142;9.232;2023-08-21T00:36:07;10.57;;;6.53;;
20525;SDS011;10421;49.142;9.232;2023-08-21T00:38:34;13.17;;;7.13;;
20525;SDS011;10421;49.142;9.232;2023-08-21T00:41:01;10.63;;;6.23;;
20525;SDS011;10421;49.142;9.232;2023-08-21T00:43:27;12.73;;;6.80;;
20525;SDS011;10421;49.142;9.232;2023-08-21T00:45:54;10.80;;;6.50;;
20525;SDS011;10421;49.142;9.232;2023-08-21T00:48:21;10.17;;;6.17;;
20525;SDS011;10421;49.142;9.232;2023-08-21T00:50:48;8.50;;;5.90;;
20525;SDS011;10421;49.142;9.232;2023-08-21T00:53:17;15.47;;;7.30;;
20525;SDS011;10421;49.142;9.232;2023-08-21T00:55:44;10.93;;;5.80;;
20525;SDS011;10421;49.142;9.232;2023-08-21T00:58:12;13.23;;;5.93;;
20525;SDS011;10421;49.142;9.232;2023-08-21T01:00:39;9.83;;;6.13;;
20525;SDS011;10421;49.142;9.232;2023-08-21T01:03:07;10.60;;;6.13;;
20525;SDS011;10421;49.142;9.232;2023-08-21T01:05:34;11.73;;;7.17;;
20525;SDS011;10421;49.142;9.232;2023-08-21T01:08:03;10.23;;;6.30;;
20525;SDS011;10421;49.142;9.232;2023-08-21T01:10:38;8.37;;;5.93;;
20525;SDS011;10421;49.142;9.232;2023-08-21T01:13:10;10.77;;;6.33;;
20525;SDS011;10421;49.142;9.232;2023-08-21T01:15:44;10.60;;;6.57;;
20525;SDS011;10421;49.142;9.232;2023-08-21T01:18:11;10.93;;;6.60;;
20525;SDS011;10421;49.142;9.232;2023-08-21T01:20:40;12.53;;;6.53;;
20525;SDS011;10421;49.142;9.232;2023-08-21T01:23:07;9.73;;;6.57;;
20525;SDS011;10421;49.142;9.232;2023-08-21T01:25:35;11.30;;;6.40;;
20525;SDS011;10421;49.142;9.232;2023-08-21T01:28:03;12.40;;;7.03;;
20525;SDS011;10421;49.142;9.232;2023-08-21T01:30:30;10.80;;;6.43;;
20525;SDS011;10421;49.142;9.232;2023-08-21T01:32:59;11.00;;;6.90;;
20525;SDS011;10421;49.142;9.232;2023-08-21T01:35:31;10.23;;;6.37;;
20525;SDS011;10421;49.142;9.232;2023-08-21T01:38:00;8.90;;;6.00;;
20525;SDS011;10421;49.142;9.232;2023-08-21T01:40:28;9.40;;;6.27;;
20525;SDS011;10421;49.142;9.232;2023-08-21T01:42:56;11.00;;;6.17;;
20525;SDS011;10421;49.142;9.232;2023-08-21T01:45:22;13.87;;;6.60;;
20525;SDS011;10421;49.142;9.232;2023-08-21T01:47:49;10.30;;;6.30;;
20525;SDS011;10421;49.142;9.232;2023-08-21T01:50:16;10.90;;;6.50;;
20525;SDS011;10421;49.142;9.232;2023-08-21T01:52:43;13.33;;;6.67;;
20525;SDS011;10421;49.142;9.232;2023-08-21T01:55:09;12.00;;;6.20;;
20525;SDS011;10421;49.142;9.232;2023-08-21T01:57:36;12.27;;;6.50;;
20525;SDS011;10421;49.142;9.232;2023-08-21T02:00:06;11.90;;;6.83;;
20525;SDS011;10421;49.142;9.232;2023-08-21T02:02:33;16.03;;;7.70;;
20525;SDS011;10421;49.142;9.232;2023-08-21T02:05:00;10.80;;;6.80;;
20525;SDS011;10421;49.142;9.232;2023-08-21T02:07:27;12.17;;;6.37;;
20525;SDS011;10421;49.142;9.232;2023-08-21T02:09:54;11.93;;;6.43;;
20525;SDS011;10421;49.142;9.232;2023-08-21T02:12:21;11.27;;;6.63;;
20525;SDS011;10421;49.142;9.232;2023-08-21T02:14:48;11.10;;;6.47;;
20525;SDS011;10421;49.142;9.232;2023-08-21T02:17:16;11.33;;;6.63;;
20525;SDS011;10421;49.142;9.232;2023-08-21T02:19:42;14.13;;;7.40;;
20525;SDS011;10421;49.142;9.232;2023-08-21T02:22:09;10.10;;;6.53;;
20525;SDS011;10421;49.142;9.232;2023-08-21T02:24:36;11.97;;;6.30;;
20525;SDS011;10421;49.142;9.232;2023-08-21T02:27:03;12.83;;;6.30;;
20525;SDS011;10421;49.142;9.232;2023-08-21T02:29:30;10.63;;;6.80;;
20525;SDS011;10421;49.142;9.232;2023-08-21T02:31:56;14.20;;;6.30;;
20525;SDS011;10421;49.142;9.232;2023-08-21T02:34:25;9.30;;;5.90;;
20525;SDS011;10421;49.142;9.232;2023-08-21T02:36:52;15.50;;;6.87;;
20525;SDS011;10421;49.142;9.232;2023-08-21T02:39:19;11.47;;;7.07;;
20525;SDS011;10421;49.142;9.232;2023-08-21T02:41:45;11.20;;;6.73;;
20525;SDS011;10421;49.142;9.232;2023-08-21T02:44:12;13.00;;;6.70;;
20525;SDS011;10421;49.142;9.232;2023-08-21T02:46:39;11.60;;;6.37;;
20525;SDS011;10421;49.142;9.232;2023-08-21T02:49:06;12.30;;;6.90;;
20525;SDS011;10421;49.142;9.232;2023-08-21T02:51:34;11.30;;;6.53;;
20525;SDS011;10421;49.142;9.232;2023-08-21T02:54:00;14.20;;;7.33;;
20525;SDS011;10421;49.142;9.232;2023-08-21T02:56:27;15.63;;;7.17;;
20525;SDS011;10421;49.142;9.232;2023-08-21T02:58:55;9.90;;;6.40;;
20525;SDS011;10421;49.142;9.232;2023-08-21T03:01:21;10.50;;;6.60;;
20525;SDS011;10421;49.142;9.232;2023-08-21T03:03:48;10.50;;;6.30;;
20525;SDS011;10421;49.142;9.232;2023-08-21T03:06:15;13.20;;;7.60;;
20525;SDS011;10421;49.142;9.232;2023-08-21T03:08:43;14.33;;;7.80;;
20525;SDS011;10421;49.142;9.232;2023-08-21T03:11:10;16.70;;;7.67;;
20525;SDS011;10421;49.142;9.232;2023-08-21T03:13:37;11.70;;;6.83;;
20525;SDS011;10421;49.142;9.232;2023-08-21T03:16:04;11.97;;;6.70;;
20525;SDS011;10421;49.142;9.232;2023-08-21T03:18:31;14.90;;;7.23;;
20525;SDS011;10421;49.142;9.232;2023-08-21T03:20:58;16.93;;;7.00;;
20525;SDS011;10421;49.142;9.232;2023-08-21T03:23:25;9.17;;;5.80;;
20525;SDS011;10421;49.142;9.232;2023-08-21T03:25:53;12.23;;;6.90;;
20525;SDS011;10421;49.142;9.232;2023-08-21T03:28:20;13.23;;;7.03;;
20525;SDS011;10421;49.142;9.232;2023-08-21T03:30:46;12.90;;;7.03;;
20525;SDS011;10421;49.142;9.232;2023-08-21T03:33:13;17.00;;;7.67;;
20525;SDS011;10421;49.142;9.232;2023-08-21T03:35:40;13.50;;;6.93;;
20525;SDS011;10421;49.142;9.232;2023-08-21T03:38:06;13.40;;;6.87;;
20525;SDS011;10421;49.142;9.232;2023-08-21T03:40:33;14.40;;;7.70;;
20525;SDS011;10421;49.142;9.232;2023-08-21T03:43:01;12.67;;;6.77;;
20525;SDS011;10421;49.142;9.232;2023-08-21T03:45:28;13.87;;;6.80;;
20525;SDS011;10421;49.142;9.232;2023-08-21T03:47:55;12.13;;;7.07;;
20525;SDS011;10421;49.142;9.232;2023-08-21T03:50:21;9.50;;;6.20;;
20525;SDS011;10421;49.142;9.232;2023-08-21T03:52:48;9.50;;;6.60;;
20525;SDS011;10421;49.142;9.232;2023-08-21T03:55:15;10.37;;;6.80;;
20525;SDS011;10421;49.142;9.232;2023-08-21T03:57:41;12.47;;;7.47;;
20525;SDS011;10421;49.142;9.232;2023-08-21T04:00:10;10.30;;;6.87;;
20525;SDS011;10421;49.142;9.232;2023-08-21T04:02:37;14.47;;;7.60;;
20525;SDS011;10421;49.142;9.232;2023-08-21T04:05:04;10.97;;;6.27;;
20525;SDS011;10421;49.142;9.232;2023-08-21T04:07:31;10.40;;;6.80;;
20525;SDS011;10421;49.142;9.232;2023-08-21T04:09:58;12.00;;;7.50;;
20525;SDS011;10421;49.142;9.232;2023-08-21T04:12:24;8.97;;;6.40;;
20525;SDS011;10421;49.142;9.232;2023-08-21T04:14:51;10.47;;;6.40;;
20525;SDS011;10421;49.142;9.232;2023-08-21T04:17:21;12.77;;;7.80;;
20525;SDS011;10421;49.142;9.232;2023-08-21T04:19:48;13.17;;;7.20;;
20525;SDS011;10421;49.142;9.232;2023-08-21T04:22:15;15.10;;;8.17;;
20525;SDS011;10421;49.142;9.232;2023-08-21T04:24:41;13.80;;;7.40;;
20525;SDS011;10421;49.142;9.232;2023-08-21T04:27:08;9.13;;;6.80;;
20525;SDS011;10421;49.142;9.232;2023-08-21T04:29:35;13.27;;;7.73;;
20525;SDS011;10421;49.142;9.232;2023-08-21T04:32:02;12.70;;;7.50;;
20525;SDS011;10421;49.142;9.232;2023-08-21T04:34:30;12.33;;;7.90;;
20525;SDS011;10421;49.142;9.232;2023-08-21T04:36:58;14.03;;;7.70;;
20525;SDS011;10421;49.142;9.232;2023-08-21T04:39:25;12.60;;;7.87;;
20525;SDS011;10421;49.142;9.232;2023-08-21T04:41:51;12.07;;;7.07;;
20525;SDS011;10421;49.142;9.232;2023-08-21T04:44:18;11.93;;;7.27;;
20525;SDS011;10421;49.142;9.232;2023-08-21T04:46:48;11.20;;;6.77;;
20525;SDS011;10421;49.142;9.232;2023-08-21T04:49:15;11.33;;;7.37;;
20525;SDS011;10421;49.142;9.232;2023-08-21T04:51:43;11.17;;;7.03;;
20525;SDS011;10421;49.142;9.232;2023-08-21T04:54:10;18.13;;;8.30;;
20525;SDS011;10421;49.142;9.232;2023-08-21T04:56:37;9.83;;;7.20;;
20525;SDS011;10421;49.142;9.232;2023-08-21T04:59:03;10.80;;;7.10;;
20525;SDS011;10421;49.142;9.232;2023-08-21T05:01:30;15.13;;;8.00;;
20525;SDS011;10421;49.142;9.232;2023-08-21T05:03:57;15.50;;;7.83;;
20525;SDS011;10421;49.142;9.232;2023-08-21T05:06:23;9.37;;;6.60;;
20525;SDS011;10421;49.142;9.232;2023-08-21T05:08:52;14.10;;;7.80;;
20525;SDS011;10421;49.142;9.232;2023-08-21T05:11:18;14.33;;;7.87;;
20525;SDS011;10421;49.142;9.232;2023-08-21T05:13:45;20.53;;;7.50;;
20525;SDS011;10421;49.142;9.232;2023-08-21T05:16:12;13.03;;;7.20;;
20525;SDS011;10421;49.142;9.232;2023-08-21T05:18:38;14.90;;;7.90;;
20525;SDS011;10421;49.142;9.232;2023-08-21T05:21:05;9.50;;;6.77;;
20525;SDS011;10421;49.142;9.232;2023-08-21T05:23:32;12.80;;;7.50;;
20525;SDS011;10421;49.142;9.232;2023-08-21T05:26:00;12.23;;;6.70;;
20525;SDS011;10421;49.142;9.232;2023-08-21T05:28:26;11.27;;;7.20;;
20525;SDS011;10421;49.142;9.232;2023-08-21T05:30:53;20.20;;;8.53;;
20525;SDS011;10421;49.142;9.232;2023-08-21T05:33:20;12.57;;;7.90;;
20525;SDS011;10421;49.142;9.232;2023-08-21T05:35:46;9.87;;;7.13;;
20525;SDS011;10421;49.142;9.232;2023-08-21T05:38:13;15.97;;;8.50;;
20525;SDS011;10421;49.142;9.232;2023-08-21T05:40:40;12.80;;;8.27;;
20525;SDS011;10421;49.142;9.232;2023-08-21T05:43:08;12.90;;;7.77;;
20525;SDS011;10421;49.142;9.232;2023-08-21T05:45:35;9.67;;;7.10;;
20525;SDS011;10421;49.142;9.232;2023-08-21T05:48:02;10.20;;;7.17;;
20525;SDS011;10421;49.142;9.232;2023-08-21T05:50:29;11.80;;;7.10;;
20525;SDS011;10421;49.142;9.232;2023-08-21T05:52:55;13.30;;;7.80;;
20525;SDS011;10421;49.142;9.232;2023-08-21T05:55:23;15.63;;;8.20;;
20525;SDS011;10421;49.142;9.232;2023-08-21T05:57:50;13.87;;;8.30;;
20525;SDS011;10421;49.142;9.232;2023-08-21T06:00:19;14.90;;;7.90;;
20525;SDS011;10421;49.142;9.232;2023-08-21T06:02:46;11.73;;;7.13;;
20525;SDS011;10421;49.142;9.232;2023-08-21T06:05:12;13.80;;;7.83;;
20525;SDS011;10421;49.142;9.232;2023-08-21T06:07:39;14.97;;;7.43;;
20525;SDS011;10421;49.142;9.232;2023-08-21T06:10:06;10.20;;;7.50;;
20525;SDS011;10421;49.142;9.232;2023-08-21T06:12:36;12.57;;;7.53;;
20525;SDS011;10421;49.142;9.232;2023-08-21T06:15:03;14.30;;;8.77;;
20525;SDS011;10421;49.142;9.232;2023-08-21T06:17:34;14.47;;;8.30;;
20525;SDS011;10421;49.142;9.232;2023-08-21T06:20:01;16.20;;;8.40;;
20525;SDS011;10421;49.142;9.232;2023-08-21T06:22:30;16.57;;;8.47;;
20525;SDS011;10421;49.142;9.232;2023-08-21T06:24:57;11.27;;;8.10;;
20525;SDS011;10421;49.142;9.232;2023-08-21T06:27:24;13.40;;;9.33;;
20525;SDS011;10421;49.142;9.232;2023-08-21T06:29:50;19.73;;;10.10;;
20525;SDS011;10421;49.142;9.232;2023-08-21T06:32:17;15.27;;;8.87;;
20525;SDS011;10421;49.142;9.232;2023-08-21T06:34:45;13.73;;;8.43;;
20525;SDS011;10421;49.142;9.232;2023-08-21T06:37:12;12.57;;;7.50;;
20525;SDS011;10421;49.142;9.232;2023-08-21T06:39:39;15.00;;;9.20;;
20525;SDS011;10421;49.142;9.232;2023-08-21T06:42:05;11.50;;;8.17;;
20525;SDS011;10421;49.142;9.232;2023-08-21T06:44:32;15.73;;;8.63;;
20525;SDS011;10421;49.142;9.232;2023-08-21T06:46:59;15.50;;;8.30;;
20525;SDS011;10421;49.142;9.232;2023-08-21T06:49:26;17.13;;;8.73;;
20525;SDS011;10421;49.142;9.232;2023-08-21T06:51:54;11.60;;;8.40;;
20525;SDS011;10421;49.142;9.232;2023-08-21T06:54:21;15.17;;;8.63;;
20525;SDS011;10421;49.142;9.232;2023-08-21T06:56:47;17.23;;;8.30;;
20525;SDS011;10421;49.142;9.232;2023-08-21T06:59:14;14.47;;;8.77;;
20525;SDS011;10421;49.142;9.232;2023-08-21T07:01:41;14.90;;;7.93;;
20525;SDS011;10421;49.142;9.232;2023-08-21T07:04:08;11.87;;;8.10;;
20525;SDS011;10421;49.142;9.232;2023-08-21T07:06:34;15.27;;;8.30;;
20525;SDS011;10421;49.142;9.232;2023-08-21T07:09:02;15.97;;;8.80;;
20525;SDS011;10421;49.142;9.232;2023-08-21T07:11:29;13.50;;;8.87;;
20525;SDS011;10421;49.142;9.232;2023-08-21T07:13:56;15.97;;;7.93;;
20525;SDS011;10421;49.142;9.232;2023-08-21T07:16:23;11.20;;;8.07;;
20525;SDS011;10421;49.142;9.232;2023-08-21T07:18:51;12.07;;;7.80;;
20525;SDS011;10421;49.142;9.232;2023-08-21T07:21:18;13.27;;;8.00;;
20525;SDS011;10421;49.142;9.232;2023-08-21T07:23:45;14.73;;;8.07;;
20525;SDS011;10421;49.142;9.232;2023-08-21T07:26:13;12.27;;;7.97;;
20525;SDS011;10421;49.142;9.232;2023-08-21T07:28:40;12.63;;;7.20;;
20525;SDS011;10421;49.142;9.232;2023-08-21T07:31:06;14.73;;;7.80;;
20525;SDS011;10421;49.142;9.232;2023-08-21T07:33:33;15.83;;;9.13;;
20525;SDS011;10421;49.142;9.232;2023-08-21T07:36:00;16.97;;;8.73;;
20525;SDS011;10421;49.142;9.232;2023-08-21T07:38:28;10.17;;;7.40;;
20525;SDS011;10421;49.142;9.232;2023-08-21T07:41:02;15.80;;;8.60;;
20525;SDS011;10421;49.142;9.232;2023-08-21T07:43:31;10.53;;;7.70;;
20525;SDS011;10421;49.142;9.232;2023-08-21T07:46:01;13.60;;;8.10;;
20525;SDS011;10421;49.142;9.232;2023-08-21T07:48:28;11.20;;;7.77;;
20525;SDS011;10421;49.142;9.232;2023-08-21T07:50:55;14.43;;;8.50;;
20525;SDS011;10421;49.142;9.232;2023-08-21T07:53:22;11.73;;;8.07;;
20525;SDS011;10421;49.142;9.232;2023-08-21T07:55:48;12.07;;;8.47;;
20525;SDS011;10421;49.142;9.232;2023-08-21T07:58:15;16.70;;;8.80;;
20525;SDS011;10421;49.142;9.232;2023-08-21T08:00:43;14.70;;;9.00;;
20525;SDS011;10421;49.142;9.232;2023-08-21T08:03:10;19.63;;;9.53;;
20525;SDS011;10421;49.142;9.232;2023-08-21T08:05:39;13.63;;;7.60;;
20525;SDS011;10421;49.142;9.232;2023-08-21T08:08:06;12.00;;;8.40;;
20525;SDS011;10421;49.142;9.232;2023-08-21T08:10:33;16.63;;;8.90;;
20525;SDS011;10421;49.142;9.232;2023-08-21T08:12:59;16.30;;;8.70;;
20525;SDS011;10421;49.142;9.232;2023-08-21T08:15:26;13.60;;;8.20;;
20525;SDS011;10421;49.142;9.232;2023-08-21T08:17:54;13.00;;;8.70;;
20525;SDS011;10421;49.142;9.232;2023-08-21T08:20:21;11.63;;;8.60;;
20525;SDS011;10421;49.142;9.232;2023-08-21T08:22:48;11.77;;;8.20;;
20525;SDS011;10421;49.142;9.232;2023-08-21T08:25:15;12.27;;;8.20;;
20525;SDS011;10421;49.142;9.232;2023-08-21T08:27:42;18.77;;;9.33;;
20525;SDS011;10421;49.142;9.232;2023-08-21T08:30:09;17.83;;;9.37;;
20525;SDS011;10421;49.142;9.232;2023-08-21T08:32:36;14.77;;;9.27;;
20525;SDS011;10421;49.142;9.232;2023-08-21T08:35:06;11.20;;;8.60;;
20525;SDS011;10421;49.142;9.232;2023-08-21T08:37:34;11.50;;;8.00;;
20525;SDS011;10421;49.142;9.232;2023-08-21T08:40:01;14.53;;;9.00;;
20525;SDS011;10421;49.142;9.232;2023-08-21T08:42:28;12.90;;;8.70;;
20525;SDS011;10421;49.142;9.232;2023-08-21T08:44:56;14.57;;;8.83;;
20525;SDS011;10421;49.142;9.232;2023-08-21T08:47:25;11.60;;;8.70;;
20525;SDS011;10421;49.142;9.232;2023-08-21T08:49:53;14.73;;;9.93;;
20525;SDS011;10421;49.142;9.232;2023-08-21T08:52:22;15.63;;;9.80;;
20525;SDS011;10421;49.142;9.232;2023-08-21T08:54:52;10.17;;;8.03;;
20525;SDS011;10421;49.142;9.232;2023-08-21T08:57:21;13.40;;;9.03;;
20525;SDS011;10421;49.142;9.232;2023-08-21T08:59:48;13.10;;;8.90;;
20525;SDS011;10421;49.142;9.232;2023-08-21T09:02:15;13.77;;;9.33;;
20525;SDS011;10421;49.142;9.232;2023-08-21T09:04:42;12.83;;;9.50;;
20525;SDS011;10421;49.142;9.232;2023-08-21T09:07:09;10.30;;;8.57;;
20525;SDS011;10421;49.142;9.232;2023-08-21T09:09:38;12.53;;;9.10;;
20525;SDS011;10421;49.142;9.232;2023-08-21T09:12:09;12.77;;;9.43;;
20525;SDS011;10421;49.142;9.232;2023-08-21T09:14:37;14.60;;;10.10;;
20525;SDS011;10421;49.142;9.232;2023-08-21T09:17:05;15.97;;;10.53;;
20525;SDS011;10421;49.142;9.232;2023-08-21T09:19:32;12.70;;;9.17;;
20525;SDS011;10421;49.142;9.232;2023-08-21T09:22:02;14.87;;;9.97;;
20525;SDS011;10421;49.142;9.232;2023-08-21T09:24:35;10.60;;;9.10;;
20525;SDS011;10421;49.142;9.232;2023-08-21T09:27:11;10.70;;;8.87;;
20525;SDS011;10421;49.142;9.232;2023-08-21T09:29:39;12.30;;;9.57;;
20525;SDS011;10421;49.142;9.232;2023-08-21T09:32:06;12.90;;;8.90;;
20525;SDS011;10421;49.142;9.232;2023-08-21T09:34:34;16.47;;;10.80;;
20525;SDS011;10421;49.142;9.232;2023-08-21T09:37:03;13.17;;;9.80;;
20525;SDS011;10421;49.142;9.232;2023-08-21T09:39:32;14.90;;;9.70;;
20525;SDS011;10421;49.142;9.232;2023-08-21T09:42:00;13.30;;;9.50;;
20525;SDS011;10421;49.142;9.232;2023-08-21T09:44:28;11.83;;;8.87;;
20525;SDS011;10421;49.142;9.232;2023-08-21T09:47:00;15.83;;;9.43;;
20525;SDS011;10421;49.142;9.232;2023-08-21T09:49:27;15.17;;;10.00;;
20525;SDS011;10421;49.142;9.232;2023-08-21T09:51:54;13.27;;;9.23;;
20525;SDS011;10421;49.142;9.232;2023-08-21T09:54:22;14.97;;;9.60;;
20525;SDS011;10421;49.142;9.232;2023-08-21T09:56:49;13.57;;;8.20;;
20525;SDS011;10421;49.142;9.232;2023-08-21T09:59:17;20.80;;;10.90;;
20525;SDS011;10421;49.142;9.232;2023-08-21T10:01:45;9.87;;;6.97;;
20525;SDS011;10421;49.142;9.232;2023-08-21T10:04:15;11.43;;;8.07;;
20525;SDS011;10421;49.142;9.232;2023-08-21T10:06:44;14.40;;;9.00;;
20525;SDS011;10421;49.142;9.232;2023-08-21T10:09:12;9.30;;;7.00;;
20525;SDS011;10421;49.142;9.232;2023-08-21T10:11:40;11.80;;;7.00;;
20525;SDS011;10421;49.142;9.232;2023-08-21T10:14:09;10.43;;;7.70;;
20525;SDS011;10421;49.142;9.232;2023-08-21T10:16:37;12.53;;;8.07;;
20525;SDS011;10421;49.142;9.232;2023-08-21T10:19:05;12.83;;;7.97;;
20525;SDS011;10421;49.142;9.232;2023-08-21T10:21:34;18.87;;;9.70;;
20525;SDS011;10421;49.142;9.232;2023-08-21T10:24:02;13.13;;;8.27;;
20525;SDS011;10421;49.142;9.232;2023-08-21T10:26:29;12.23;;;8.20;;
20525;SDS011;10421;49.142;9.232;2023-08-21T10:28:58;12.90;;;8.03;;
20525;SDS011;10421;49.142;9.232;2023-08-21T10:31:28;10.90;;;7.67;;
20525;SDS011;10421;49.142;9.232;2023-08-21T10:33:56;13.27;;;7.80;;
20525;SDS011;10421;49.142;9.232;2023-08-21T10:39:28;10.07;;;6.47;;
20525;SDS011;10421;49.142;9.232;2023-08-21T10:42:00;11.60;;;7.30;;
20525;SDS011;10421;49.142;9.232;2023-08-21T10:44:35;9.90;;;6.83;;
20525;SDS011;10421;49.142;9.232;2023-08-21T10:47:13;14.90;;;7.73;;
20525;SDS011;10421;49.142;9.232;2023-08-21T10:49:42;10.40;;;6.43;;
20525;SDS011;10421;49.142;9.232;2023-08-21T10:52:10;8.40;;;6.57;;
20525;SDS011;10421;49.142;9.232;2023-08-21T10:54:46;9.53;;;6.50;;
20525;SDS011;10421;49.142;9.232;2023-08-21T10:57:13;12.83;;;7.43;;
20525;SDS011;10421;49.142;9.232;2023-08-21T10:59:50;7.93;;;6.60;;
20525;SDS011;10421;49.142;9.232;2023-08-21T11:02:21;10.43;;;6.87;;
20525;SDS011;10421;49.142;9.232;2023-08-21T11:04:49;7.33;;;6.07;;
20525;SDS011;10421;49.142;9.232;2023-08-21T11:07:16;12.93;;;6.57;;
20525;SDS011;10421;49.142;9.232;2023-08-21T11:09:43;10.53;;;7.30;;
20525;SDS011;10421;49.142;9.232;2023-08-21T11:12:13;11.83;;;7.80;;
20525;SDS011;10421;49.142;9.232;2023-08-21T11:14:41;7.83;;;5.80;;
20525;SDS011;10421;49.142;9.232;2023-08-21T11:17:08;7.83;;;6.33;;
20525;SDS011;10421;49.142;9.232;2023-08-21T11:19:36;10.50;;;7.10;;
20525;SDS011;10421;49.142;9.232;2023-08-21T11:22:03;9.70;;;7.00;;
20525;SDS011;10421;49.142;9.232;2023-08-21T11:24:31;12.00;;;6.90;;
20525;SDS011;10421;49.142;9.232;2023-08-21T11:27:05;8.13;;;6.17;;
20525;SDS011;10421;49.142;9.232;2023-08-21T11:29:35;12.60;;;7.60;;
20525;SDS011;10421;49.142;9.232;2023-08-21T11:32:03;11.77;;;7.10;;
20525;SDS011;10421;49.142;9.232;2023-08-21T11:34:34;9.27;;;6.40;;
20525;SDS011;10421;49.142;9.232;2023-08-21T11:37:01;13.17;;;7.37;;
20525;SDS011;10421;49.142;9.232;2023-08-21T11:39:38;16.00;;;7.70;;
20525;SDS011;10421;49.142;9.232;2023-08-21T11:42:08;10.80;;;7.37;;
20525;SDS011;10421;49.142;9.232;2023-08-21T11:44:41;9.83;;;6.53;;
20525;SDS011;10421;49.142;9.232;2023-08-21T11:47:09;11.90;;;7.43;;
20525;SDS011;10421;49.142;9.232;2023-08-21T11:49:36;10.30;;;6.60;;
20525;SDS011;10421;49.142;9.232;2023-08-21T11:52:06;11.90;;;6.97;;
20525;SDS011;10421;49.142;9.232;2023-08-21T11:54:33;9.97;;;6.87;;
20525;SDS011;10421;49.142;9.232;2023-08-21T11:57:03;13.33;;;7.30;;
20525;SDS011;10421;49.142;9.232;2023-08-21T11:59:31;15.33;;;7.13;;
20525;SDS011;10421;49.142;9.232;2023-08-21T12:01:59;22.63;;;9.43;;
20525;SDS011;10421;49.142;9.232;2023-08-21T12:04:26;11.30;;;7.20;;
20525;SDS011;10421;49.142;9.232;2023-08-21T12:06:52;11.17;;;6.80;;
20525;SDS011;10421;49.142;9.232;2023-08-21T12:09:19;14.23;;;8.23;;
20525;SDS011;10421;49.142;9.232;2023-08-21T12:11:46;9.33;;;6.87;;
20525;SDS011;10421;49.142;9.232;2023-08-21T12:14:12;13.93;;;6.63;;
20525;SDS011;10421;49.142;9.232;2023-08-21T12:16:39;9.50;;;6.50;;
20525;SDS011;10421;49.142;9.232;2023-08-21T12:19:07;7.73;;;6.07;;
20525;SDS011;10421;49.142;9.232;2023-08-21T12:21:36;11.50;;;7.03;;
20525;SDS011;10421;49.142;9.232;2023-08-21T12:24:04;10.23;;;6.67;;
20525;SDS011;10421;49.142;9.232;2023-08-21T12:26:31;11.07;;;6.87;;
20525;SDS011;10421;49.142;9.232;2023-08-21T12:28:58;15.80;;;6.70;;
20525;SDS011;10421;49.142;9.232;2023-08-21T12:31:26;9.10;;;6.63;;
20525;SDS011;10421;49.142;9.232;2023-08-21T12:33:53;9.63;;;6.07;;
20525;SDS011;10421;49.142;9.232;2023-08-21T12:36:21;12.67;;;7.10;;
20525;SDS011;10421;49.142;9.232;2023-08-21T12:38:48;9.43;;;6.57;;
20525;SDS011;10421;49.142;9.232;2023-08-21T12:41:14;8.63;;;6.13;;
20525;SDS011;10421;49.142;9.232;2023-08-21T12:43:41;10.60;;;6.20;;
20525;SDS011;10421;49.142;9.232;2023-08-21T12:46:08;9.47;;;6.37;;
20525;SDS011;10421;49.142;9.232;2023-08-21T12:48:35;10.70;;;6.40;;
20525;SDS011;10421;49.142;9.232;2023-08-21T12:51:01;14.60;;;7.67;;
20525;SDS011;10421;49.142;9.232;2023-08-21T12:53:30;10.73;;;6.63;;
20525;SDS011;10421;49.142;9.232;2023-08-21T12:55:59;8.70;;;6.10;;
20525;SDS011;10421;49.142;9.232;2023-08-21T12:58:26;8.50;;;6.13;;
20525;SDS011;10421;49.142;9.232;2023-08-21T13:00:55;9.53;;;6.40;;
20525;SDS011;10421;49.142;9.232;2023-08-21T13:03:21;9.83;;;6.30;;
20525;SDS011;10421;49.142;9.232;2023-08-21T13:05:48;6.80;;;5.30;;
20525;SDS011;10421;49.142;9.232;2023-08-21T13:08:15;11.10;;;5.97;;
20525;SDS011;10421;49.142;9.232;2023-08-21T13:10:43;8.97;;;5.90;;
20525;SDS011;10421;49.142;9.232;2023-08-21T13:13:09;9.10;;;6.20;;
20525;SDS011;10421;49.142;9.232;2023-08-21T13:15:36;12.40;;;7.47;;
20525;SDS011;10421;49.142;9.232;2023-08-21T13:18:03;12.80;;;6.77;;
20525;SDS011;10421;49.142;9.232;2023-08-21T13:20:30;9.83;;;6.43;;
20525;SDS011;10421;49.142;9.232;2023-08-21T13:22:57;13.03;;;6.70;;
20525;SDS011;10421;49.142;9.232;2023-08-21T13:25:24;9.33;;;6.43;;
20525;SDS011;10421;49.142;9.232;2023-08-21T13:27:52;8.43;;;6.23;;
20525;SDS011;10421;49.142;9.232;2023-08-21T13:30:20;8.57;;;6.37;;
20525;SDS011;10421;49.142;9.232;2023-08-21T13:32:47;11.27;;;6.97;;
20525;SDS011;10421;49.142;9.232;2023-08-21T13:35:14;14.00;;;7.60;;
20525;SDS011;10421;49.142;9.232;2023-08-21T13:37:41;12.70;;;7.43;;
20525;SDS011;10421;49.142;9.232;2023-08-21T13:40:08;9.53;;;6.27;;
20525;SDS011;10421;49.142;9.232;2023-08-21T13:42:39;12.20;;;7.20;;
20525;SDS011;10421;49.142;9.232;2023-08-21T13:45:08;10.43;;;6.93;;
20525;SDS011;10421;49.142;9.232;2023-08-21T13:47:37;14.50;;;7.20;;
20525;SDS011;10421;49.142;9.232;2023-08-21T13:50:05;11.33;;;6.97;;
20525;SDS011;10421;49.142;9.232;2023-08-21T13:52:33;11.70;;;6.80;;
20525;SDS011;10421;49.142;9.232;2023-08-21T13:54:59;11.23;;;6.27;;
20525;SDS011;10421;49.142;9.232;2023-08-21T13:57:27;10.43;;;6.93;;
20525;SDS011;10421;49.142;9.232;2023-08-21T13:59:54;7.60;;;6.00;;
20525;SDS011;10421;49.142;9.232;2023-08-21T14:02:22;10.83;;;6.57;;
20525;SDS011;10421;49.142;9.232;2023-08-21T14:04:49;15.60;;;7.73;;
20525;SDS011;10421;49.142;9.232;2023-08-21T14:07:15;7.13;;;5.60;;
20525;SDS011;10421;49.142;9.232;2023-08-21T14:09:42;16.33;;;7.80;;
20525;SDS011;10421;49.142;9.232;2023-08-21T14:12:09;12.27;;;7.17;;
20525;SDS011;10421;49.142;9.232;2023-08-21T14:14:36;6.30;;;5.70;;
20525;SDS011;10421;49.142;9.232;2023-08-21T14:17:03;13.47;;;7.20;;
20525;SDS011;10421;49.142;9.232;2023-08-21T14:19:31;10.37;;;6.20;;
20525;SDS011;10421;49.142;9.232;2023-08-21T14:21:58;13.80;;;7.80;;
20525;SDS011;10421;49.142;9.232;2023-08-21T14:24:25;7.70;;;5.80;;
20525;SDS011;10421;49.142;9.232;2023-08-21T14:26:52;8.00;;;5.50;;
20525;SDS011;10421;49.142;9.232;2023-08-21T14:29:19;11.80;;;6.97;;
20525;SDS011;10421;49.142;9.232;2023-08-21T14:31:45;10.57;;;6.60;;
20525;SDS011;10421;49.142;9.232;2023-08-21T14:34:13;7.73;;;6.00;;
20525;SDS011;10421;49.142;9.232;2023-08-21T14:36:41;10.10;;;6.80;;
20525;SDS011;10421;49.142;9.232;2023-08-21T14:39:08;7.80;;;5.47;;
20525;SDS011;10421;49.142;9.232;2023-08-21T14:41:36;14.90;;;7.47;;